sensor_id;sensor_type;location;lat;lon;timestamp;P1;durP1;ratioP1;P2;durP2;ratioP2
79015;SDS011;72726;44.842;37.556;2023-09-12T00:00:46;13.45;;;8.77;;
79015;SDS011;72726;44.842;37.556;2023-09-12T00:01:48;14.25;;;8.55;;
79015;SDS011;72726;44.842;37.556;2023-09-12T00:02:50;12.88;;;8.15;;
79015;SDS011;72726;44.842;37.556;2023-09-12T00:03:51;11.20;;;7.70;;
79015;SDS011;72726;44.842;37.556;2023-09-12T00:04:52;14.40;;;8.13;;
79015;SDS011;72726;44.842;37.556;2023-09-12T00:05:54;15.73;;;8.45;;
79015;SDS011;72726;44.842;37.556;2023-09-12T00:06:57;13.23;;;8.25;;
79015;SDS011;72726;44.842;37.556;2023-09-12T00:07:58;13.38;;;8.48;;
79015;SDS011;72726;44.842;37.556;2023-09-12T00:09:00;13.48;;;8.15;;
79015;SDS011;72726;44.842;37.556;2023-09-12T00:10:01;12.98;;;8.43;;
79015;SDS011;72726;44.842;37.556;2023-09-12T00:11:04;12.93;;;8.20;;
79015;SDS011;72726;44.842;37.556;2023-09-12T00:12:14;12.60;;;7.72;;
79015;SDS011;72726;44.842;37.556;2023-09-12T00:13:16;13.75;;;8.05;;
79015;SDS011;72726;44.842;37.556;2023-09-12T00:14:17;13.63;;;7.82;;
79015;SDS011;72726;44.842;37.556;2023-09-12T00:15:19;12.98;;;7.20;;
79015;SDS011;72726;44.842;37.556;2023-09-12T00:16:20;12.48;;;7.20;;
79015;SDS011;72726;44.842;37.556;2023-09-12T00:17:22;11.85;;;7.68;;
79015;SDS011;72726;44.842;37.556;2023-09-12T00:18:23;14.25;;;8.45;;
79015;SDS011;72726;44.842;37.556;2023-09-12T00:19:25;13.80;;;8.30;;
79015;SDS011;72726;44.842;37.556;2023-09-12T00:20:26;11.50;;;7.38;;
79015;SDS011;72726;44.842;37.556;2023-09-12T00:21:28;14.13;;;7.25;;
79015;SDS011;72726;44.842;37.556;2023-09-12T00:22:29;11.57;;;7.90;;
79015;SDS011;72726;44.842;37.556;2023-09-12T00:23:31;12.48;;;7.07;;
79015;SDS011;72726;44.842;37.556;2023-09-12T00:24:32;11.90;;;7.03;;
79015;SDS011;72726;44.842;37.556;2023-09-12T00:25:34;12.25;;;7.55;;
79015;SDS011;72726;44.842;37.556;2023-09-12T00:26:35;12.95;;;7.20;;
79015;SDS011;72726;44.842;37.556;2023-09-12T00:27:37;11.75;;;7.63;;
79015;SDS011;72726;44.842;37.556;2023-09-12T00:28:38;12.07;;;7.50;;
79015;SDS011;72726;44.842;37.556;2023-09-12T00:29:39;11.48;;;7.38;;
79015;SDS011;72726;44.842;37.556;2023-09-12T00:30:40;12.57;;;7.18;;
79015;SDS011;72726;44.842;37.556;2023-09-12T00:31:41;13.80;;;6.38;;
79015;SDS011;72726;44.842;37.556;2023-09-12T00:32:43;11.73;;;7.45;;
79015;SDS011;72726;44.842;37.556;2023-09-12T00:33:46;10.60;;;6.90;;
79015;SDS011;72726;44.842;37.556;2023-09-12T00:34:47;11.90;;;6.90;;
79015;SDS011;72726;44.842;37.556;2023-09-12T00:35:48;11.35;;;7.35;;
79015;SDS011;72726;44.842;37.556;2023-09-12T00:36:49;12.30;;;7.30;;
79015;SDS011;72726;44.842;37.556;2023-09-12T00:37:51;10.63;;;7.10;;
79015;SDS011;72726;44.842;37.556;2023-09-12T00:38:52;11.98;;;7.30;;
79015;SDS011;72726;44.842;37.556;2023-09-12T00:39:53;12.65;;;8.02;;
79015;SDS011;72726;44.842;37.556;2023-09-12T00:40:54;11.52;;;7.15;;
79015;SDS011;72726;44.842;37.556;2023-09-12T00:41:55;13.02;;;7.70;;
79015;SDS011;72726;44.842;37.556;2023-09-12T00:42:56;12.90;;;7.63;;
79015;SDS011;72726;44.842;37.556;2023-09-12T00:43:58;12.05;;;7.43;;
79015;SDS011;72726;44.842;37.556;2023-09-12T00:45:01;11.57;;;7.22;;
79015;SDS011;72726;44.842;37.556;2023-09-12T00:46:02;13.57;;;7.60;;
79015;SDS011;72726;44.842;37.556;2023-09-12T00:47:04;12.55;;;7.18;;
79015;SDS011;72726;44.842;37.556;2023-09-12T00:48:06;10.63;;;6.95;;
79015;SDS011;72726;44.842;37.556;2023-09-12T00:49:08;10.98;;;6.80;;
79015;SDS011;72726;44.842;37.556;2023-09-12T00:50:09;12.88;;;7.63;;
79015;SDS011;72726;44.842;37.556;2023-09-12T00:51:12;14.98;;;8.07;;
79015;SDS011;72726;44.842;37.556;2023-09-12T00:52:15;13.40;;;6.78;;
79015;SDS011;72726;44.842;37.556;2023-09-12T00:53:19;13.38;;;7.35;;
79015;SDS011;72726;44.842;37.556;2023-09-12T00:54:21;11.68;;;6.65;;
79015;SDS011;72726;44.842;37.556;2023-09-12T00:55:22;12.18;;;7.78;;
79015;SDS011;72726;44.842;37.556;2023-09-12T00:56:23;11.57;;;7.90;;
79015;SDS011;72726;44.842;37.556;2023-09-12T00:57:25;12.95;;;8.18;;
79015;SDS011;72726;44.842;37.556;2023-09-12T00:58:26;13.00;;;7.53;;
79015;SDS011;72726;44.842;37.556;2023-09-12T00:59:28;12.82;;;7.70;;
79015;SDS011;72726;44.842;37.556;2023-09-12T01:00:29;13.13;;;8.20;;
79015;SDS011;72726;44.842;37.556;2023-09-12T01:01:31;13.05;;;8.23;;
79015;SDS011;72726;44.842;37.556;2023-09-12T01:02:33;14.55;;;8.43;;
79015;SDS011;72726;44.842;37.556;2023-09-12T01:03:35;12.82;;;7.10;;
79015;SDS011;72726;44.842;37.556;2023-09-12T01:04:36;11.05;;;7.43;;
79015;SDS011;72726;44.842;37.556;2023-09-12T01:05:38;13.85;;;7.45;;
79015;SDS011;72726;44.842;37.556;2023-09-12T01:06:39;11.80;;;7.25;;
79015;SDS011;72726;44.842;37.556;2023-09-12T01:07:41;12.07;;;7.50;;
79015;SDS011;72726;44.842;37.556;2023-09-12T01:08:43;12.43;;;7.97;;
79015;SDS011;72726;44.842;37.556;2023-09-12T01:09:44;15.23;;;7.85;;
79015;SDS011;72726;44.842;37.556;2023-09-12T01:10:46;14.02;;;7.97;;
79015;SDS011;72726;44.842;37.556;2023-09-12T01:11:49;12.02;;;7.38;;
79015;SDS011;72726;44.842;37.556;2023-09-12T01:12:50;14.88;;;8.15;;
79015;SDS011;72726;44.842;37.556;2023-09-12T01:13:51;12.57;;;8.30;;
79015;SDS011;72726;44.842;37.556;2023-09-12T01:14:52;15.13;;;8.23;;
79015;SDS011;72726;44.842;37.556;2023-09-12T01:15:54;12.40;;;7.75;;
79015;SDS011;72726;44.842;37.556;2023-09-12T01:16:55;14.68;;;8.80;;
79015;SDS011;72726;44.842;37.556;2023-09-12T01:17:57;15.75;;;7.63;;
79015;SDS011;72726;44.842;37.556;2023-09-12T01:18:59;12.38;;;7.95;;
79015;SDS011;72726;44.842;37.556;2023-09-12T01:20:00;12.43;;;8.40;;
79015;SDS011;72726;44.842;37.556;2023-09-12T01:28:03;12.48;;;8.18;;
79015;SDS011;72726;44.842;37.556;2023-09-12T01:29:13;15.20;;;7.82;;
79015;SDS011;72726;44.842;37.556;2023-09-12T01:30:17;12.88;;;7.85;;
79015;SDS011;72726;44.842;37.556;2023-09-12T01:31:21;14.05;;;8.73;;
79015;SDS011;72726;44.842;37.556;2023-09-12T01:32:24;14.70;;;8.13;;
79015;SDS011;72726;44.842;37.556;2023-09-12T01:33:26;13.30;;;7.55;;
79015;SDS011;72726;44.842;37.556;2023-09-12T01:34:28;14.02;;;7.85;;
79015;SDS011;72726;44.842;37.556;2023-09-12T01:35:29;12.60;;;8.43;;
79015;SDS011;72726;44.842;37.556;2023-09-12T01:36:30;17.15;;;9.07;;
79015;SDS011;72726;44.842;37.556;2023-09-12T01:37:31;13.10;;;8.05;;
79015;SDS011;72726;44.842;37.556;2023-09-12T01:38:32;15.60;;;8.50;;
79015;SDS011;72726;44.842;37.556;2023-09-12T01:39:34;14.70;;;6.90;;
79015;SDS011;72726;44.842;37.556;2023-09-12T01:40:46;12.00;;;7.15;;
79015;SDS011;72726;44.842;37.556;2023-09-12T01:41:49;14.88;;;7.10;;
79015;SDS011;72726;44.842;37.556;2023-09-12T01:42:53;12.63;;;7.82;;
79015;SDS011;72726;44.842;37.556;2023-09-12T01:43:56;15.10;;;7.95;;
79015;SDS011;72726;44.842;37.556;2023-09-12T01:44:59;13.05;;;8.23;;
79015;SDS011;72726;44.842;37.556;2023-09-12T01:46:02;12.60;;;8.27;;
79015;SDS011;72726;44.842;37.556;2023-09-12T01:47:03;12.02;;;7.25;;
79015;SDS011;72726;44.842;37.556;2023-09-12T01:48:06;12.77;;;8.30;;
79015;SDS011;72726;44.842;37.556;2023-09-12T01:49:09;11.75;;;7.80;;
79015;SDS011;72726;44.842;37.556;2023-09-12T01:50:12;11.95;;;8.23;;
79015;SDS011;72726;44.842;37.556;2023-09-12T01:51:14;14.07;;;7.10;;
79015;SDS011;72726;44.842;37.556;2023-09-12T01:52:16;12.73;;;7.95;;
79015;SDS011;72726;44.842;37.556;2023-09-12T01:53:17;11.93;;;7.38;;
79015;SDS011;72726;44.842;37.556;2023-09-12T01:54:20;13.77;;;7.35;;
79015;SDS011;72726;44.842;37.556;2023-09-12T01:55:23;13.45;;;6.70;;
79015;SDS011;72726;44.842;37.556;2023-09-12T01:56:26;13.25;;;8.23;;
79015;SDS011;72726;44.842;37.556;2023-09-12T01:57:27;15.63;;;8.30;;
79015;SDS011;72726;44.842;37.556;2023-09-12T01:58:29;14.07;;;7.88;;
79015;SDS011;72726;44.842;37.556;2023-09-12T01:59:32;12.77;;;7.65;;
79015;SDS011;72726;44.842;37.556;2023-09-12T02:00:33;13.50;;;7.88;;
79015;SDS011;72726;44.842;37.556;2023-09-12T02:01:35;12.13;;;7.72;;
79015;SDS011;72726;44.842;37.556;2023-09-12T02:02:36;15.52;;;8.00;;
79015;SDS011;72726;44.842;37.556;2023-09-12T02:03:38;13.50;;;7.72;;
79015;SDS011;72726;44.842;37.556;2023-09-12T02:04:39;12.93;;;7.25;;
79015;SDS011;72726;44.842;37.556;2023-09-12T02:05:40;11.98;;;7.40;;
79015;SDS011;72726;44.842;37.556;2023-09-12T02:06:41;12.80;;;7.28;;
79015;SDS011;72726;44.842;37.556;2023-09-12T02:07:42;16.38;;;7.30;;
79015;SDS011;72726;44.842;37.556;2023-09-12T02:08:43;15.30;;;7.60;;
79015;SDS011;72726;44.842;37.556;2023-09-12T02:09:45;12.23;;;7.00;;
79015;SDS011;72726;44.842;37.556;2023-09-12T02:10:46;12.88;;;7.03;;
79015;SDS011;72726;44.842;37.556;2023-09-12T02:11:48;11.02;;;6.65;;
79015;SDS011;72726;44.842;37.556;2023-09-12T02:12:50;14.45;;;7.30;;
79015;SDS011;72726;44.842;37.556;2023-09-12T02:13:51;12.35;;;6.68;;
79015;SDS011;72726;44.842;37.556;2023-09-12T02:14:52;11.40;;;6.70;;
79015;SDS011;72726;44.842;37.556;2023-09-12T02:15:59;12.20;;;6.65;;
79015;SDS011;72726;44.842;37.556;2023-09-12T02:17:01;12.68;;;6.80;;
79015;SDS011;72726;44.842;37.556;2023-09-12T02:18:03;12.55;;;7.18;;
79015;SDS011;72726;44.842;37.556;2023-09-12T02:19:05;12.43;;;6.80;;
79015;SDS011;72726;44.842;37.556;2023-09-12T02:20:07;13.02;;;6.88;;
79015;SDS011;72726;44.842;37.556;2023-09-12T02:21:09;10.38;;;6.45;;
79015;SDS011;72726;44.842;37.556;2023-09-12T02:22:11;11.55;;;6.72;;
79015;SDS011;72726;44.842;37.556;2023-09-12T02:23:12;13.38;;;7.18;;
79015;SDS011;72726;44.842;37.556;2023-09-12T02:24:13;12.93;;;7.60;;
79015;SDS011;72726;44.842;37.556;2023-09-12T02:25:14;11.98;;;7.40;;
79015;SDS011;72726;44.842;37.556;2023-09-12T02:26:15;11.48;;;6.32;;
79015;SDS011;72726;44.842;37.556;2023-09-12T02:27:16;12.77;;;7.07;;
79015;SDS011;72726;44.842;37.556;2023-09-12T02:28:18;11.88;;;7.15;;
79015;SDS011;72726;44.842;37.556;2023-09-12T02:29:20;11.15;;;6.50;;
79015;SDS011;72726;44.842;37.556;2023-09-12T02:30:21;11.73;;;6.93;;
79015;SDS011;72726;44.842;37.556;2023-09-12T02:31:22;11.60;;;6.72;;
79015;SDS011;72726;44.842;37.556;2023-09-12T02:32:23;12.50;;;6.82;;
79015;SDS011;72726;44.842;37.556;2023-09-12T02:33:24;10.50;;;6.28;;
79015;SDS011;72726;44.842;37.556;2023-09-12T02:34:26;12.48;;;7.57;;
79015;SDS011;72726;44.842;37.556;2023-09-12T02:35:27;12.30;;;7.40;;
79015;SDS011;72726;44.842;37.556;2023-09-12T02:36:30;12.90;;;7.60;;
79015;SDS011;72726;44.842;37.556;2023-09-12T02:37:32;12.15;;;7.05;;
79015;SDS011;72726;44.842;37.556;2023-09-12T02:38:33;12.63;;;7.30;;
79015;SDS011;72726;44.842;37.556;2023-09-12T02:39:34;13.88;;;7.25;;
79015;SDS011;72726;44.842;37.556;2023-09-12T02:40:36;13.70;;;7.10;;
79015;SDS011;72726;44.842;37.556;2023-09-12T02:41:37;14.88;;;7.63;;
79015;SDS011;72726;44.842;37.556;2023-09-12T02:42:38;13.25;;;7.22;;
79015;SDS011;72726;44.842;37.556;2023-09-12T02:43:39;14.20;;;8.23;;
79015;SDS011;72726;44.842;37.556;2023-09-12T02:44:40;13.93;;;7.90;;
79015;SDS011;72726;44.842;37.556;2023-09-12T02:45:42;11.90;;;7.65;;
79015;SDS011;72726;44.842;37.556;2023-09-12T02:46:43;12.05;;;7.78;;
79015;SDS011;72726;44.842;37.556;2023-09-12T02:47:44;12.52;;;7.75;;
79015;SDS011;72726;44.842;37.556;2023-09-12T02:48:47;13.90;;;8.15;;
79015;SDS011;72726;44.842;37.556;2023-09-12T02:49:48;15.73;;;7.43;;
79015;SDS011;72726;44.842;37.556;2023-09-12T02:50:49;12.65;;;7.82;;
79015;SDS011;72726;44.842;37.556;2023-09-12T02:51:51;13.70;;;7.80;;
79015;SDS011;72726;44.842;37.556;2023-09-12T02:52:54;13.55;;;8.20;;
79015;SDS011;72726;44.842;37.556;2023-09-12T02:53:55;16.48;;;8.05;;
79015;SDS011;72726;44.842;37.556;2023-09-12T02:54:56;16.88;;;8.98;;
79015;SDS011;72726;44.842;37.556;2023-09-12T02:55:57;18.20;;;8.68;;
79015;SDS011;72726;44.842;37.556;2023-09-12T02:56:58;13.23;;;7.35;;
79015;SDS011;72726;44.842;37.556;2023-09-12T02:58:00;12.57;;;7.90;;
79015;SDS011;72726;44.842;37.556;2023-09-12T02:59:01;14.02;;;7.70;;
79015;SDS011;72726;44.842;37.556;2023-09-12T03:00:02;12.50;;;7.93;;
79015;SDS011;72726;44.842;37.556;2023-09-12T03:02:08;13.13;;;7.70;;
79015;SDS011;72726;44.842;37.556;2023-09-12T03:03:09;14.38;;;7.30;;
79015;SDS011;72726;44.842;37.556;2023-09-12T03:04:10;14.27;;;8.18;;
79015;SDS011;72726;44.842;37.556;2023-09-12T03:05:11;15.07;;;7.43;;
79015;SDS011;72726;44.842;37.556;2023-09-12T03:06:13;13.15;;;7.07;;
79015;SDS011;72726;44.842;37.556;2023-09-12T03:07:15;11.60;;;6.68;;
79015;SDS011;72726;44.842;37.556;2023-09-12T03:08:17;12.48;;;6.05;;
79015;SDS011;72726;44.842;37.556;2023-09-12T03:09:18;11.27;;;6.90;;
79015;SDS011;72726;44.842;37.556;2023-09-12T03:10:20;17.35;;;8.15;;
79015;SDS011;72726;44.842;37.556;2023-09-12T03:11:21;14.02;;;7.70;;
79015;SDS011;72726;44.842;37.556;2023-09-12T03:12:23;14.65;;;7.20;;
79015;SDS011;72726;44.842;37.556;2023-09-12T03:13:24;13.43;;;7.13;;
79015;SDS011;72726;44.842;37.556;2023-09-12T03:14:27;11.55;;;6.82;;
79015;SDS011;72726;44.842;37.556;2023-09-12T03:15:29;14.77;;;8.15;;
79015;SDS011;72726;44.842;37.556;2023-09-12T03:16:30;12.38;;;7.07;;
79015;SDS011;72726;44.842;37.556;2023-09-12T03:17:31;15.50;;;8.27;;
79015;SDS011;72726;44.842;37.556;2023-09-12T03:18:33;14.63;;;7.18;;
79015;SDS011;72726;44.842;37.556;2023-09-12T03:19:34;15.60;;;7.45;;
79015;SDS011;72726;44.842;37.556;2023-09-12T03:20:37;12.27;;;7.40;;
79015;SDS011;72726;44.842;37.556;2023-09-12T03:21:39;12.07;;;7.70;;
79015;SDS011;72726;44.842;37.556;2023-09-12T03:22:44;12.77;;;7.30;;
79015;SDS011;72726;44.842;37.556;2023-09-12T03:23:47;15.18;;;7.53;;
79015;SDS011;72726;44.842;37.556;2023-09-12T03:24:48;11.52;;;7.75;;
79015;SDS011;72726;44.842;37.556;2023-09-12T03:25:49;15.10;;;7.93;;
79015;SDS011;72726;44.842;37.556;2023-09-12T03:26:51;14.45;;;7.57;;
79015;SDS011;72726;44.842;37.556;2023-09-12T03:27:52;13.20;;;7.95;;
79015;SDS011;72726;44.842;37.556;2023-09-12T03:28:54;13.70;;;8.05;;
79015;SDS011;72726;44.842;37.556;2023-09-12T03:29:56;14.48;;;8.07;;
79015;SDS011;72726;44.842;37.556;2023-09-12T03:31:07;13.40;;;7.47;;
79015;SDS011;72726;44.842;37.556;2023-09-12T03:32:09;14.70;;;8.35;;
79015;SDS011;72726;44.842;37.556;2023-09-12T03:33:10;14.55;;;7.57;;
79015;SDS011;72726;44.842;37.556;2023-09-12T03:34:12;14.10;;;7.85;;
79015;SDS011;72726;44.842;37.556;2023-09-12T03:35:13;13.23;;;7.38;;
79015;SDS011;72726;44.842;37.556;2023-09-12T03:36:14;12.40;;;7.88;;
79015;SDS011;72726;44.842;37.556;2023-09-12T03:37:16;14.18;;;8.10;;
79015;SDS011;72726;44.842;37.556;2023-09-12T03:38:18;12.68;;;7.63;;
79015;SDS011;72726;44.842;37.556;2023-09-12T03:39:19;11.23;;;7.25;;
79015;SDS011;72726;44.842;37.556;2023-09-12T03:40:20;14.25;;;8.02;;
79015;SDS011;72726;44.842;37.556;2023-09-12T03:41:21;12.10;;;6.95;;
79015;SDS011;72726;44.842;37.556;2023-09-12T03:42:26;14.52;;;8.23;;
79015;SDS011;72726;44.842;37.556;2023-09-12T03:43:27;12.98;;;8.18;;
79015;SDS011;72726;44.842;37.556;2023-09-12T03:44:28;13.50;;;8.35;;
79015;SDS011;72726;44.842;37.556;2023-09-12T03:45:30;12.63;;;8.73;;
79015;SDS011;72726;44.842;37.556;2023-09-12T03:46:31;18.70;;;9.38;;
79015;SDS011;72726;44.842;37.556;2023-09-12T03:47:32;15.75;;;8.20;;
79015;SDS011;72726;44.842;37.556;2023-09-12T03:48:33;15.70;;;7.65;;
79015;SDS011;72726;44.842;37.556;2023-09-12T03:49:37;23.27;;;8.82;;
79015;SDS011;72726;44.842;37.556;2023-09-12T03:50:38;15.10;;;8.82;;
79015;SDS011;72726;44.842;37.556;2023-09-12T03:51:39;12.60;;;8.05;;
79015;SDS011;72726;44.842;37.556;2023-09-12T03:52:40;13.70;;;8.60;;
79015;SDS011;72726;44.842;37.556;2023-09-12T03:53:42;14.55;;;7.65;;
79015;SDS011;72726;44.842;37.556;2023-09-12T03:54:43;17.95;;;9.30;;
79015;SDS011;72726;44.842;37.556;2023-09-12T03:55:44;16.25;;;8.57;;
79015;SDS011;72726;44.842;37.556;2023-09-12T03:56:45;12.93;;;7.05;;
79015;SDS011;72726;44.842;37.556;2023-09-12T03:57:46;13.75;;;7.47;;
79015;SDS011;72726;44.842;37.556;2023-09-12T03:58:48;12.32;;;7.35;;
79015;SDS011;72726;44.842;37.556;2023-09-12T03:59:49;15.95;;;8.13;;
79015;SDS011;72726;44.842;37.556;2023-09-12T04:00:52;13.43;;;8.00;;
79015;SDS011;72726;44.842;37.556;2023-09-12T04:01:53;15.75;;;8.05;;
79015;SDS011;72726;44.842;37.556;2023-09-12T04:02:54;17.15;;;8.43;;
79015;SDS011;72726;44.842;37.556;2023-09-12T04:03:56;13.95;;;7.65;;
79015;SDS011;72726;44.842;37.556;2023-09-12T04:04:57;16.10;;;8.52;;
79015;SDS011;72726;44.842;37.556;2023-09-12T04:06:00;13.68;;;7.40;;
79015;SDS011;72726;44.842;37.556;2023-09-12T04:07:01;15.70;;;8.23;;
79015;SDS011;72726;44.842;37.556;2023-09-12T04:08:02;13.05;;;7.90;;
79015;SDS011;72726;44.842;37.556;2023-09-12T04:09:04;15.80;;;8.52;;
79015;SDS011;72726;44.842;37.556;2023-09-12T04:10:05;13.75;;;7.45;;
79015;SDS011;72726;44.842;37.556;2023-09-12T04:11:06;15.75;;;9.35;;
79015;SDS011;72726;44.842;37.556;2023-09-12T04:12:08;16.25;;;8.40;;
79015;SDS011;72726;44.842;37.556;2023-09-12T04:13:09;13.52;;;8.93;;
79015;SDS011;72726;44.842;37.556;2023-09-12T04:14:10;16.08;;;9.43;;
79015;SDS011;72726;44.842;37.556;2023-09-12T04:15:12;13.40;;;7.65;;
79015;SDS011;72726;44.842;37.556;2023-09-12T04:16:13;15.45;;;7.90;;
79015;SDS011;72726;44.842;37.556;2023-09-12T04:17:14;17.60;;;9.02;;
79015;SDS011;72726;44.842;37.556;2023-09-12T04:18:16;16.02;;;9.32;;
79015;SDS011;72726;44.842;37.556;2023-09-12T04:19:17;14.98;;;8.32;;
79015;SDS011;72726;44.842;37.556;2023-09-12T04:20:18;13.40;;;7.75;;
79015;SDS011;72726;44.842;37.556;2023-09-12T04:21:19;14.15;;;8.07;;
79015;SDS011;72726;44.842;37.556;2023-09-12T04:22:21;13.60;;;7.97;;
79015;SDS011;72726;44.842;37.556;2023-09-12T04:23:22;12.80;;;7.70;;
79015;SDS011;72726;44.842;37.556;2023-09-12T04:24:23;13.32;;;7.22;;
79015;SDS011;72726;44.842;37.556;2023-09-12T04:25:25;11.48;;;6.88;;
79015;SDS011;72726;44.842;37.556;2023-09-12T04:26:26;13.82;;;7.47;;
79015;SDS011;72726;44.842;37.556;2023-09-12T04:27:27;11.93;;;6.28;;
79015;SDS011;72726;44.842;37.556;2023-09-12T04:28:28;13.35;;;7.70;;
79015;SDS011;72726;44.842;37.556;2023-09-12T04:29:31;11.27;;;6.65;;
79015;SDS011;72726;44.842;37.556;2023-09-12T04:31:36;11.95;;;6.90;;
79015;SDS011;72726;44.842;37.556;2023-09-12T04:32:37;15.20;;;7.68;;
79015;SDS011;72726;44.842;37.556;2023-09-12T04:33:38;11.50;;;6.63;;
79015;SDS011;72726;44.842;37.556;2023-09-12T04:34:42;11.95;;;7.57;;
79015;SDS011;72726;44.842;37.556;2023-09-12T04:35:43;12.07;;;7.40;;
79015;SDS011;72726;44.842;37.556;2023-09-12T04:36:45;11.35;;;6.72;;
79015;SDS011;72726;44.842;37.556;2023-09-12T04:37:46;14.02;;;6.93;;
79015;SDS011;72726;44.842;37.556;2023-09-12T04:38:49;12.32;;;6.65;;
79015;SDS011;72726;44.842;37.556;2023-09-12T04:39:50;11.65;;;6.72;;
79015;SDS011;72726;44.842;37.556;2023-09-12T04:40:57;11.63;;;7.10;;
79015;SDS011;72726;44.842;37.556;2023-09-12T04:42:03;12.38;;;6.30;;
79015;SDS011;72726;44.842;37.556;2023-09-12T04:43:05;11.68;;;6.10;;
79015;SDS011;72726;44.842;37.556;2023-09-12T04:44:06;13.25;;;7.30;;
79015;SDS011;72726;44.842;37.556;2023-09-12T04:45:08;11.45;;;7.00;;
79015;SDS011;72726;44.842;37.556;2023-09-12T04:46:09;16.50;;;7.53;;
79015;SDS011;72726;44.842;37.556;2023-09-12T04:47:13;11.77;;;6.78;;
79015;SDS011;72726;44.842;37.556;2023-09-12T04:48:15;12.02;;;6.75;;
79015;SDS011;72726;44.842;37.556;2023-09-12T04:49:17;10.75;;;6.20;;
79015;SDS011;72726;44.842;37.556;2023-09-12T04:50:18;11.45;;;6.57;;
79015;SDS011;72726;44.842;37.556;2023-09-12T04:51:19;14.23;;;5.95;;
79015;SDS011;72726;44.842;37.556;2023-09-12T04:52:20;11.45;;;6.45;;
79015;SDS011;72726;44.842;37.556;2023-09-12T04:53:21;10.73;;;6.40;;
79015;SDS011;72726;44.842;37.556;2023-09-12T04:54:22;11.75;;;6.28;;
79015;SDS011;72726;44.842;37.556;2023-09-12T04:55:24;12.18;;;6.25;;
79015;SDS011;72726;44.842;37.556;2023-09-12T04:56:25;10.80;;;6.15;;
79015;SDS011;72726;44.842;37.556;2023-09-12T04:57:27;10.80;;;6.40;;
79015;SDS011;72726;44.842;37.556;2023-09-12T04:58:31;10.50;;;5.95;;
79015;SDS011;72726;44.842;37.556;2023-09-12T04:59:33;10.73;;;6.65;;
79015;SDS011;72726;44.842;37.556;2023-09-12T05:00:34;11.88;;;6.72;;
79015;SDS011;72726;44.842;37.556;2023-09-12T05:01:36;14.73;;;6.28;;
79015;SDS011;72726;44.842;37.556;2023-09-12T05:02:37;11.07;;;6.00;;
79015;SDS011;72726;44.842;37.556;2023-09-12T05:03:39;10.50;;;6.07;;
79015;SDS011;72726;44.842;37.556;2023-09-12T05:04:40;11.93;;;6.45;;
79015;SDS011;72726;44.842;37.556;2023-09-12T05:05:41;9.63;;;5.90;;
79015;SDS011;72726;44.842;37.556;2023-09-12T05:06:45;11.32;;;6.07;;
79015;SDS011;72726;44.842;37.556;2023-09-12T05:07:47;11.52;;;6.63;;
79015;SDS011;72726;44.842;37.556;2023-09-12T05:08:48;11.15;;;6.07;;
79015;SDS011;72726;44.842;37.556;2023-09-12T05:09:50;10.40;;;6.55;;
79015;SDS011;72726;44.842;37.556;2023-09-12T05:10:52;11.48;;;6.32;;
79015;SDS011;72726;44.842;37.556;2023-09-12T05:11:53;13.35;;;6.45;;
79015;SDS011;72726;44.842;37.556;2023-09-12T05:12:54;12.60;;;5.90;;
79015;SDS011;72726;44.842;37.556;2023-09-12T05:13:56;10.90;;;5.90;;
79015;SDS011;72726;44.842;37.556;2023-09-12T05:14:57;11.95;;;6.72;;
79015;SDS011;72726;44.842;37.556;2023-09-12T05:15:58;11.18;;;5.47;;
79015;SDS011;72726;44.842;37.556;2023-09-12T05:17:00;11.70;;;6.25;;
79015;SDS011;72726;44.842;37.556;2023-09-12T05:18:03;10.95;;;6.13;;
79015;SDS011;72726;44.842;37.556;2023-09-12T05:19:04;12.25;;;6.47;;
79015;SDS011;72726;44.842;37.556;2023-09-12T05:20:06;11.48;;;6.72;;
79015;SDS011;72726;44.842;37.556;2023-09-12T05:21:08;12.95;;;6.72;;
79015;SDS011;72726;44.842;37.556;2023-09-12T05:22:09;10.27;;;6.22;;
79015;SDS011;72726;44.842;37.556;2023-09-12T05:23:10;15.77;;;7.35;;
79015;SDS011;72726;44.842;37.556;2023-09-12T05:24:12;11.60;;;6.57;;
79015;SDS011;72726;44.842;37.556;2023-09-12T05:25:13;11.23;;;6.60;;
79015;SDS011;72726;44.842;37.556;2023-09-12T05:26:14;13.40;;;6.85;;
79015;SDS011;72726;44.842;37.556;2023-09-12T05:27:16;13.35;;;7.03;;
79015;SDS011;72726;44.842;37.556;2023-09-12T05:28:18;9.35;;;5.95;;
79015;SDS011;72726;44.842;37.556;2023-09-12T05:29:22;11.32;;;6.20;;
79015;SDS011;72726;44.842;37.556;2023-09-12T05:30:24;13.20;;;6.10;;
79015;SDS011;72726;44.842;37.556;2023-09-12T05:31:25;11.57;;;6.28;;
79015;SDS011;72726;44.842;37.556;2023-09-12T05:32:27;13.13;;;6.47;;
79015;SDS011;72726;44.842;37.556;2023-09-12T05:33:29;10.00;;;6.13;;
79015;SDS011;72726;44.842;37.556;2023-09-12T05:34:30;10.73;;;5.72;;
79015;SDS011;72726;44.842;37.556;2023-09-12T05:35:32;10.23;;;5.97;;
79015;SDS011;72726;44.842;37.556;2023-09-12T05:36:33;12.27;;;6.57;;
79015;SDS011;72726;44.842;37.556;2023-09-12T05:37:34;12.27;;;5.63;;
79015;SDS011;72726;44.842;37.556;2023-09-12T05:38:36;11.13;;;6.05;;
79015;SDS011;72726;44.842;37.556;2023-09-12T05:39:37;13.00;;;6.50;;
79015;SDS011;72726;44.842;37.556;2023-09-12T05:40:38;13.18;;;6.85;;
79015;SDS011;72726;44.842;37.556;2023-09-12T05:41:40;12.02;;;6.40;;
79015;SDS011;72726;44.842;37.556;2023-09-12T05:42:41;10.85;;;6.45;;
79015;SDS011;72726;44.842;37.556;2023-09-12T05:43:44;11.80;;;6.38;;
79015;SDS011;72726;44.842;37.556;2023-09-12T05:44:46;12.00;;;6.10;;
79015;SDS011;72726;44.842;37.556;2023-09-12T05:45:48;11.23;;;6.45;;
79015;SDS011;72726;44.842;37.556;2023-09-12T05:46:50;12.77;;;6.70;;
79015;SDS011;72726;44.842;37.556;2023-09-12T05:47:51;10.23;;;6.05;;
79015;SDS011;72726;44.842;37.556;2023-09-12T05:48:53;10.35;;;5.82;;
79015;SDS011;72726;44.842;37.556;2023-09-12T05:49:55;11.32;;;6.40;;
79015;SDS011;72726;44.842;37.556;2023-09-12T05:50:56;13.25;;;6.13;;
79015;SDS011;72726;44.842;37.556;2023-09-12T05:51:58;11.82;;;5.85;;
79015;SDS011;72726;44.842;37.556;2023-09-12T05:53:00;10.20;;;5.80;;
79015;SDS011;72726;44.842;37.556;2023-09-12T05:54:02;11.45;;;6.68;;
79015;SDS011;72726;44.842;37.556;2023-09-12T05:55:04;11.13;;;5.97;;
79015;SDS011;72726;44.842;37.556;2023-09-12T05:56:06;12.00;;;6.35;;
79015;SDS011;72726;44.842;37.556;2023-09-12T05:57:07;11.23;;;6.20;;
79015;SDS011;72726;44.842;37.556;2023-09-12T05:58:10;10.57;;;6.20;;
79015;SDS011;72726;44.842;37.556;2023-09-12T05:59:11;15.85;;;6.95;;
79015;SDS011;72726;44.842;37.556;2023-09-12T06:00:13;11.60;;;6.70;;
79015;SDS011;72726;44.842;37.556;2023-09-12T06:01:17;11.60;;;6.50;;
79015;SDS011;72726;44.842;37.556;2023-09-12T06:02:19;14.38;;;6.70;;
79015;SDS011;72726;44.842;37.556;2023-09-12T06:03:20;12.30;;;6.10;;
79015;SDS011;72726;44.842;37.556;2023-09-12T06:04:22;10.80;;;5.43;;
79015;SDS011;72726;44.842;37.556;2023-09-12T06:05:23;11.63;;;6.03;;
79015;SDS011;72726;44.842;37.556;2023-09-12T06:06:25;11.85;;;6.32;;
79015;SDS011;72726;44.842;37.556;2023-09-12T06:07:27;11.25;;;5.45;;
79015;SDS011;72726;44.842;37.556;2023-09-12T06:08:28;11.02;;;5.35;;
79015;SDS011;72726;44.842;37.556;2023-09-12T06:09:30;9.63;;;5.75;;
79015;SDS011;72726;44.842;37.556;2023-09-12T06:10:31;9.38;;;5.75;;